createdAt,value
2023-04-17T00:00:49.754Z,13.36
2023-04-17T00:03:17.584Z,13.00
2023-04-17T00:05:49.171Z,12.85
2023-04-17T00:08:15.611Z,12.61
2023-04-17T00:10:42.014Z,12.76
2023-04-17T00:13:08.424Z,12.74
2023-04-17T00:15:34.868Z,12.73
2023-04-17T00:18:01.402Z,12.46
2023-04-17T00:20:27.830Z,12.94
2023-04-17T00:22:54.233Z,12.66
2023-04-17T00:25:21.739Z,12.72
2023-04-17T00:27:48.127Z,12.61
2023-04-17T00:30:14.558Z,12.37
2023-04-17T00:32:41.323Z,12.77
2023-04-17T00:35:10.497Z,12.77
2023-04-17T00:37:36.940Z,12.44
2023-04-17T00:40:06.064Z,12.79
2023-04-17T00:42:34.119Z,12.94
2023-04-17T00:45:00.546Z,12.81
2023-04-17T00:47:27.058Z,12.33
2023-04-17T00:49:53.466Z,12.64
2023-04-17T00:52:19.822Z,12.57
2023-04-17T00:54:46.414Z,12.70
2023-04-17T00:57:12.789Z,12.74
2023-04-17T00:59:39.175Z,13.04
2023-04-17T01:02:05.650Z,12.97
2023-04-17T01:04:32.460Z,12.69
2023-04-17T01:06:59.792Z,12.27
2023-04-17T01:09:27.045Z,12.26
2023-04-17T01:11:53.597Z,12.68
2023-04-17T01:14:19.994Z,12.82
2023-04-17T01:16:46.384Z,12.98
2023-04-17T01:19:13.089Z,12.89
2023-04-17T01:21:39.617Z,12.68
2023-04-17T01:24:06.219Z,12.53
2023-04-17T01:26:33.087Z,12.53
2023-04-17T01:28:59.623Z,12.82
2023-04-17T01:31:27.670Z,12.50
2023-04-17T01:33:54.652Z,12.37
2023-04-17T01:36:21.474Z,12.31
2023-04-17T01:38:47.857Z,12.66
2023-04-17T01:41:14.248Z,12.90
2023-04-17T01:43:40.706Z,12.35
2023-04-17T01:46:07.192Z,12.31
2023-04-17T01:48:33.662Z,12.41
2023-04-17T01:51:00.134Z,12.55
2023-04-17T01:53:27.296Z,12.52
2023-04-17T01:55:53.700Z,12.67
2023-04-17T01:58:20.136Z,12.42
2023-04-17T02:00:46.529Z,12.53
2023-04-17T02:03:13.088Z,12.61
2023-04-17T02:05:39.708Z,12.60
2023-04-17T02:08:06.279Z,12.45
2023-04-17T02:10:32.664Z,12.50
2023-04-17T02:12:59.517Z,12.39
2023-04-17T02:15:25.901Z,12.38
2023-04-17T02:17:52.486Z,12.28
2023-04-17T02:20:19.157Z,11.99
2023-04-17T02:22:45.669Z,11.65
2023-04-17T02:25:12.091Z,11.59
2023-04-17T02:27:38.476Z,11.65
2023-04-17T02:30:07.744Z,11.52
2023-04-17T02:32:34.237Z,11.66
2023-04-17T02:35:01.490Z,11.83
2023-04-17T02:37:27.884Z,11.60
2023-04-17T02:39:54.953Z,11.76
2023-04-17T02:42:21.343Z,11.80
2023-04-17T02:44:47.776Z,11.40
2023-04-17T02:47:14.158Z,11.29
2023-04-17T02:49:41.865Z,11.74
2023-04-17T02:52:08.217Z,11.54
2023-04-17T02:54:34.652Z,11.53
2023-04-17T02:57:01.788Z,11.40
2023-04-17T02:59:28.146Z,11.48
2023-04-17T03:01:54.618Z,11.66
2023-04-17T03:04:22.020Z,11.24
2023-04-17T03:06:48.566Z,10.98
2023-04-17T03:09:15.578Z,11.35
2023-04-17T03:11:42.019Z,11.61
2023-04-17T03:14:08.400Z,11.16
2023-04-17T03:16:34.827Z,11.43
2023-04-17T03:19:03.493Z,11.34
2023-04-17T03:21:29.989Z,11.35
2023-04-17T03:23:56.774Z,11.34
2023-04-17T03:26:23.165Z,11.43
2023-04-17T03:28:49.897Z,11.46
2023-04-17T03:31:16.548Z,11.27
2023-04-17T03:33:43.033Z,11.53
2023-04-17T03:36:09.546Z,11.16
2023-04-17T03:38:36.054Z,11.44
2023-04-17T03:41:04.238Z,11.31
2023-04-17T03:43:30.844Z,11.25
2023-04-17T03:45:57.259Z,11.11
2023-04-17T03:48:23.745Z,11.33
2023-04-17T03:50:50.959Z,11.31
2023-04-17T03:53:17.747Z,11.65
2023-04-17T03:55:44.919Z,11.59
2023-04-17T03:58:21.798Z,11.66
2023-04-17T04:00:49.981Z,11.72
2023-04-17T04:03:16.736Z,11.36
2023-04-17T04:05:43.281Z,11.47
2023-04-17T04:08:10.696Z,11.44
2023-04-17T04:10:47.588Z,11.59
2023-04-17T04:13:19.529Z,11.59
2023-04-17T04:15:51.976Z,11.56
2023-04-17T04:18:20.665Z,11.09
2023-04-17T04:20:48.319Z,11.33
2023-04-17T04:23:21.293Z,11.48
2023-04-17T04:25:49.621Z,11.06
2023-04-17T04:28:24.384Z,11.27
2023-04-17T04:30:53.537Z,11.13
2023-04-17T04:33:22.297Z,11.31
2023-04-17T04:35:48.915Z,11.01
2023-04-17T04:38:17.362Z,11.38
2023-04-17T04:40:50.073Z,11.30
2023-04-17T04:43:17.060Z,11.41
2023-04-17T04:45:47.972Z,11.04
2023-04-17T04:48:14.608Z,11.12
2023-04-17T04:50:40.978Z,11.90
2023-04-17T04:53:07.452Z,11.44
2023-04-17T04:55:42.087Z,11.73
2023-04-17T04:58:08.949Z,11.60
2023-04-17T05:00:37.324Z,11.63
2023-04-17T05:03:04.725Z,11.82
2023-04-17T05:05:31.367Z,11.76
2023-04-17T05:07:58.203Z,11.70
2023-04-17T05:10:29.454Z,11.68
2023-04-17T05:13:00.024Z,11.70
2023-04-17T05:15:27.111Z,11.41
2023-04-17T05:17:54.049Z,11.67
2023-04-17T05:20:23.744Z,11.82
2023-04-17T05:22:54.793Z,11.54
2023-04-17T05:25:22.583Z,11.24
2023-04-17T05:27:49.227Z,11.13
2023-04-17T05:30:17.021Z,11.33
2023-04-17T05:32:46.703Z,11.25
2023-04-17T05:35:24.154Z,11.35
2023-04-17T05:37:51.501Z,11.49
2023-04-17T05:40:17.864Z,11.74
2023-04-17T05:42:44.266Z,12.14
2023-04-17T05:45:10.681Z,11.82
2023-04-17T05:47:38.265Z,11.98
2023-04-17T05:50:04.773Z,12.33
2023-04-17T05:52:31.430Z,11.64
2023-04-17T05:54:58.041Z,12.39
2023-04-17T05:57:25.012Z,11.96
2023-04-17T05:59:52.430Z,12.00
2023-04-17T06:02:19.146Z,12.25
2023-04-17T06:04:45.785Z,12.64
2023-04-17T06:07:12.340Z,11.98
2023-04-17T06:09:38.767Z,11.95
2023-04-17T06:12:05.237Z,11.77
2023-04-17T06:14:32.202Z,11.96
2023-04-17T06:17:00.695Z,12.24
2023-04-17T06:19:27.165Z,12.19
2023-04-17T06:21:53.662Z,12.12
2023-04-17T06:24:20.063Z,12.08
2023-04-17T06:26:47.595Z,12.15
2023-04-17T06:29:15.507Z,12.15
2023-04-17T06:31:42.929Z,12.36
2023-04-17T06:34:09.345Z,12.20
2023-04-17T06:36:41.132Z,12.41
2023-04-17T06:39:07.599Z,12.32
2023-04-17T06:41:34.262Z,12.39
2023-04-17T06:44:00.913Z,12.47
2023-04-17T06:46:42.960Z,12.21
2023-04-17T06:49:09.463Z,12.21
2023-04-17T06:51:35.884Z,11.71
2023-04-17T06:54:02.298Z,11.80
2023-04-17T06:56:28.729Z,11.63
2023-04-17T06:58:55.138Z,11.78
2023-04-17T07:01:21.580Z,11.79
2023-04-17T07:03:48.191Z,11.84
2023-04-17T07:06:14.845Z,11.99
2023-04-17T07:08:41.272Z,11.80
2023-04-17T07:11:07.731Z,12.09
2023-04-17T07:13:34.154Z,11.48
2023-04-17T07:16:01.388Z,11.50
2023-04-17T07:18:29.533Z,11.58
2023-04-17T07:20:56.345Z,11.61
2023-04-17T07:23:22.768Z,11.99
2023-04-17T07:25:49.132Z,11.88
2023-04-17T07:28:15.545Z,11.97
2023-04-17T07:30:42.631Z,11.94
2023-04-17T07:33:09.139Z,12.04
2023-04-17T07:35:35.540Z,11.74
2023-04-17T07:38:03.980Z,11.92
2023-04-17T07:40:30.461Z,11.80
2023-04-17T07:42:56.882Z,11.74
2023-04-17T07:45:23.295Z,12.07
2023-04-17T07:47:49.733Z,12.00
2023-04-17T07:50:16.188Z,12.32
2023-04-17T07:52:42.626Z,12.04
2023-04-17T07:55:08.990Z,12.50
2023-04-17T07:57:35.383Z,12.11
2023-04-17T08:00:01.971Z,12.16
2023-04-17T08:02:39.981Z,12.22
2023-04-17T08:05:07.110Z,12.36
2023-04-17T08:07:33.637Z,13.13
2023-04-17T08:10:00.004Z,12.86
2023-04-17T08:12:26.416Z,12.85
2023-04-17T08:14:52.782Z,13.05
2023-04-17T08:17:22.853Z,12.58
2023-04-17T08:19:57.608Z,12.75
2023-04-17T08:22:24.617Z,12.80
2023-04-17T08:24:54.734Z,12.78
2023-04-17T08:27:21.171Z,12.66
2023-04-17T08:29:47.542Z,12.79
2023-04-17T08:32:15.101Z,12.66
2023-04-17T08:34:42.081Z,12.91
2023-04-17T08:37:08.425Z,12.78
2023-04-17T08:39:34.819Z,12.66
2023-04-17T08:42:01.193Z,12.88
2023-04-17T08:44:27.601Z,12.86
2023-04-17T08:46:53.989Z,12.90
2023-04-17T08:49:21.122Z,12.89
2023-04-17T08:51:47.529Z,13.45
2023-04-17T08:54:13.999Z,13.86
2023-04-17T08:56:40.395Z,13.34
2023-04-17T08:59:06.800Z,13.38
2023-04-17T09:01:34.913Z,13.39
2023-04-17T09:04:01.529Z,13.49
2023-04-17T09:06:28.170Z,13.57
2023-04-17T09:08:54.478Z,13.61
2023-04-17T09:11:20.991Z,13.52
2023-04-17T09:13:47.378Z,13.44
2023-04-17T09:16:16.041Z,13.09
2023-04-17T09:18:46.203Z,13.26
2023-04-17T09:21:12.598Z,13.63
2023-04-17T09:23:39.009Z,13.59
2023-04-17T09:26:05.575Z,13.76
2023-04-17T09:28:35.435Z,13.75
2023-04-17T09:31:01.848Z,13.85
2023-04-17T09:33:28.244Z,14.09
2023-04-17T09:35:54.587Z,14.41
2023-04-17T09:38:20.977Z,14.88
2023-04-17T09:40:47.351Z,13.78
2023-04-17T09:43:13.741Z,14.09
2023-04-17T09:45:41.687Z,13.47
2023-04-17T09:48:08.898Z,13.74
2023-04-17T09:50:36.627Z,13.68
2023-04-17T09:53:04.666Z,13.68
2023-04-17T09:55:34.661Z,13.69
2023-04-17T09:58:01.166Z,13.96
2023-04-17T10:00:27.673Z,14.30
2023-04-17T10:02:54.366Z,14.26
2023-04-17T10:05:21.136Z,14.16
2023-04-17T10:07:47.501Z,14.00
2023-04-17T10:10:13.960Z,14.11
2023-04-17T10:12:40.488Z,14.00
2023-04-17T10:15:07.203Z,14.31
2023-04-17T10:17:34.766Z,14.33
2023-04-17T10:20:01.413Z,14.12
2023-04-17T10:22:29.967Z,14.58
2023-04-17T10:24:56.346Z,14.30
2023-04-17T10:27:22.729Z,14.68
2023-04-17T10:29:49.263Z,14.87
2023-04-17T10:32:16.379Z,14.53
2023-04-17T10:34:43.981Z,15.12
2023-04-17T10:37:15.268Z,14.50
2023-04-17T10:39:41.823Z,14.54
2023-04-17T10:42:08.215Z,14.25
2023-04-17T10:44:34.607Z,14.38
2023-04-17T10:47:01.032Z,14.37
2023-04-17T10:49:27.422Z,14.39
2023-04-17T10:51:53.911Z,14.88
2023-04-17T10:54:20.757Z,14.81
2023-04-17T10:56:48.573Z,14.71
2023-04-17T10:59:15.876Z,15.07
2023-04-17T11:01:42.791Z,14.68
2023-04-17T11:04:09.356Z,15.54
2023-04-17T11:06:35.712Z,15.71
2023-04-17T11:09:02.113Z,16.30
2023-04-17T11:11:40.567Z,15.81
2023-04-17T11:14:12.771Z,16.26
2023-04-17T11:16:41.868Z,15.77
2023-04-17T11:19:09.872Z,16.34
2023-04-17T11:21:36.330Z,15.77
2023-04-17T11:24:03.249Z,16.12
2023-04-17T11:26:29.606Z,15.98
2023-04-17T11:28:56.392Z,16.07
2023-04-17T11:31:23.635Z,15.49
2023-04-17T11:33:50.094Z,15.58
2023-04-17T11:36:17.656Z,15.48
2023-04-17T11:38:44.087Z,15.44
2023-04-17T11:41:10.952Z,16.57
2023-04-17T11:43:37.432Z,16.41
2023-04-17T11:46:05.170Z,16.86
2023-04-17T11:48:34.700Z,16.68
2023-04-17T11:51:03.989Z,17.09
2023-04-17T11:53:30.523Z,16.67
2023-04-17T11:55:56.879Z,16.40
2023-04-17T11:58:23.464Z,16.24
2023-04-17T12:00:49.841Z,15.81
2023-04-17T12:03:16.873Z,15.83
2023-04-17T12:05:43.520Z,15.73
2023-04-17T12:08:09.973Z,15.79
2023-04-17T12:10:36.347Z,15.62
2023-04-17T12:13:02.752Z,15.67
2023-04-17T12:15:29.108Z,15.18
2023-04-17T12:17:55.526Z,15.06
2023-04-17T12:20:21.971Z,15.37
2023-04-17T12:22:48.593Z,15.65
2023-04-17T12:25:14.962Z,15.79
2023-04-17T12:27:41.303Z,16.51
2023-04-17T12:30:07.849Z,16.26
2023-04-17T12:32:34.338Z,16.46
2023-04-17T12:35:00.910Z,16.77
2023-04-17T12:37:27.381Z,16.41
2023-04-17T12:39:53.751Z,16.28
2023-04-17T12:42:20.256Z,16.99
2023-04-17T12:44:46.944Z,16.70
2023-04-17T12:47:13.303Z,16.51
2023-04-17T12:49:39.908Z,16.26
2023-04-17T12:52:06.394Z,16.73
2023-04-17T12:54:33.023Z,17.13
2023-04-17T12:56:59.621Z,16.71
2023-04-17T12:59:26.068Z,16.85
2023-04-17T13:01:52.588Z,16.74
2023-04-17T13:04:20.071Z,17.23
2023-04-17T13:06:46.830Z,17.12
2023-04-17T13:09:13.428Z,17.37
2023-04-17T13:11:40.049Z,17.37
2023-04-17T13:14:06.481Z,17.39
2023-04-17T13:16:32.995Z,17.33
2023-04-17T13:18:59.475Z,17.56
2023-04-17T13:21:26.857Z,17.44
2023-04-17T13:23:53.215Z,17.32
2023-04-17T13:26:20.377Z,17.57
2023-04-17T13:28:46.713Z,17.12
2023-04-17T13:31:14.060Z,16.84
2023-04-17T13:33:40.575Z,16.49
2023-04-17T13:36:07.437Z,16.20
2023-04-17T13:38:33.785Z,16.80
2023-04-17T13:41:00.173Z,15.73
2023-04-17T13:43:26.524Z,16.52
2023-04-17T13:45:55.411Z,17.00
2023-04-17T13:48:21.991Z,15.99
2023-04-17T13:50:48.571Z,16.67
2023-04-17T13:53:14.944Z,16.02
2023-04-17T13:55:41.372Z,16.31
2023-04-17T13:58:07.755Z,16.63
2023-04-17T14:00:34.192Z,16.74
2023-04-17T14:03:00.761Z,17.26
2023-04-17T14:05:27.268Z,17.47
2023-04-17T14:07:53.638Z,17.16
2023-04-17T14:10:20.123Z,17.31
2023-04-17T14:12:46.668Z,17.55
2023-04-17T14:15:13.245Z,17.26
2023-04-17T14:17:43.092Z,17.47
2023-04-17T14:20:10.009Z,16.88
2023-04-17T14:22:36.708Z,16.76
2023-04-17T14:25:03.134Z,16.27
2023-04-17T14:27:29.519Z,16.10
2023-04-17T14:29:55.908Z,16.58
2023-04-17T14:32:22.295Z,16.98
2023-04-17T14:34:48.753Z,16.44
2023-04-17T14:37:15.189Z,16.60
2023-04-17T14:39:41.638Z,16.32
2023-04-17T14:42:08.022Z,16.47
2023-04-17T14:44:34.485Z,16.44
2023-04-17T14:47:00.954Z,16.34
2023-04-17T14:49:27.352Z,16.22
2023-04-17T14:51:53.746Z,16.72
2023-04-17T14:54:20.166Z,16.56
2023-04-17T14:56:46.601Z,17.31
2023-04-17T14:59:13.205Z,17.48
2023-04-17T15:01:39.715Z,17.33
2023-04-17T15:04:06.683Z,17.23
2023-04-17T15:06:33.382Z,17.08
2023-04-17T15:09:00.093Z,16.73
2023-04-17T15:11:26.648Z,16.74
2023-04-17T15:13:53.242Z,16.79
2023-04-17T15:16:19.730Z,16.28
2023-04-17T15:18:46.142Z,16.39
2023-04-17T15:21:12.587Z,16.92
2023-04-17T15:23:39.020Z,16.88
2023-04-17T15:26:05.593Z,17.22
2023-04-17T15:28:33.056Z,16.98
2023-04-17T15:30:59.626Z,17.39
2023-04-17T15:33:26.067Z,16.98
2023-04-17T15:35:52.428Z,17.79
2023-04-17T15:38:18.783Z,17.61
2023-04-17T15:40:45.476Z,17.54
2023-04-17T15:43:12.330Z,17.74
2023-04-17T15:45:38.877Z,17.52
2023-04-17T15:48:05.416Z,17.25
2023-04-17T15:50:31.925Z,17.16
2023-04-17T15:52:58.278Z,16.81
2023-04-17T15:55:24.618Z,17.53
2023-04-17T15:57:51.138Z,17.95
2023-04-17T16:00:17.635Z,17.59
2023-04-17T16:02:47.588Z,17.26
2023-04-17T16:05:14.132Z,17.40
2023-04-17T16:07:40.798Z,16.95
2023-04-17T16:10:13.991Z,16.97
2023-04-17T16:12:41.508Z,16.73
2023-04-17T16:15:07.951Z,16.97
2023-04-17T16:17:34.378Z,17.33
2023-04-17T16:20:01.335Z,17.17
2023-04-17T16:22:27.905Z,17.64
2023-04-17T16:24:54.675Z,17.98
2023-04-17T16:27:21.050Z,18.46
2023-04-17T16:29:47.403Z,17.62
2023-04-17T16:32:14.350Z,17.38
2023-04-17T16:34:41.038Z,17.69
2023-04-17T16:37:08.206Z,17.74
2023-04-17T16:39:34.640Z,17.94
2023-04-17T16:42:01.371Z,17.86
2023-04-17T16:44:27.862Z,17.84
2023-04-17T16:47:10.056Z,18.03
2023-04-17T16:49:38.830Z,17.72
2023-04-17T16:52:05.246Z,17.58
2023-04-17T16:54:31.657Z,17.97
2023-04-17T16:56:58.031Z,17.73
2023-04-17T16:59:24.423Z,17.83
2023-04-17T17:01:50.818Z,18.14
2023-04-17T17:04:17.230Z,18.07
2023-04-17T17:06:43.696Z,18.18
2023-04-17T17:09:10.754Z,18.26
2023-04-17T17:11:37.473Z,18.13
2023-04-17T17:14:03.849Z,18.24
2023-04-17T17:16:30.272Z,17.72
2023-04-17T17:18:56.697Z,17.93
2023-04-17T17:21:23.079Z,18.01
2023-04-17T17:23:49.443Z,17.76
2023-04-17T17:26:17.279Z,18.26
2023-04-17T17:28:44.219Z,18.34
2023-04-17T17:31:11.279Z,18.62
2023-04-17T17:33:37.816Z,18.68
2023-04-17T17:36:04.254Z,18.25
2023-04-17T17:38:32.596Z,18.11
2023-04-17T17:41:00.236Z,17.80
2023-04-17T17:43:26.875Z,17.84
2023-04-17T17:45:53.275Z,17.79
2023-04-17T17:48:20.442Z,17.86
2023-04-17T17:50:46.969Z,17.65
2023-04-17T17:53:13.400Z,17.48
2023-04-17T17:55:39.943Z,17.50
2023-04-17T17:58:06.348Z,16.93
2023-04-17T18:00:32.759Z,17.18
2023-04-17T18:02:59.348Z,17.26
2023-04-17T18:05:25.810Z,16.94
2023-04-17T18:07:52.201Z,16.84
2023-04-17T18:10:19.232Z,16.94
2023-04-17T18:12:45.601Z,16.92
2023-04-17T18:15:12.436Z,16.78
2023-04-17T18:17:38.851Z,16.74
2023-04-17T18:20:05.286Z,16.85
2023-04-17T18:22:31.713Z,17.01
2023-04-17T18:24:58.190Z,17.02
2023-04-17T18:27:24.544Z,16.56
2023-04-17T18:29:50.903Z,16.74
2023-04-17T18:32:17.870Z,16.80
2023-04-17T18:34:48.886Z,16.71
2023-04-17T18:37:17.817Z,16.55
2023-04-17T18:39:44.498Z,16.54
2023-04-17T18:42:10.924Z,16.37
2023-04-17T18:44:37.406Z,16.46
2023-04-17T18:47:04.015Z,16.61
2023-04-17T18:49:30.501Z,16.57
2023-04-17T18:51:56.917Z,16.53
2023-04-17T18:54:24.194Z,16.42
2023-04-17T18:56:50.591Z,16.41
2023-04-17T18:59:17.009Z,16.40
2023-04-17T19:01:43.456Z,16.35
2023-04-17T19:04:09.833Z,16.30
2023-04-17T19:06:36.268Z,16.14
2023-04-17T19:09:02.668Z,16.23
2023-04-17T19:11:29.563Z,16.27
2023-04-17T19:13:55.976Z,16.27
2023-04-17T19:16:22.359Z,16.37
2023-04-17T19:18:48.735Z,16.11
2023-04-17T19:21:18.015Z,16.18
2023-04-17T19:23:44.367Z,16.05
2023-04-17T19:26:11.084Z,16.14
2023-04-17T19:28:38.160Z,15.98
2023-04-17T19:31:04.913Z,15.81
2023-04-17T19:33:31.281Z,15.82
2023-04-17T19:35:58.312Z,15.90
2023-04-17T19:38:25.968Z,15.61
2023-04-17T19:40:52.298Z,15.19
2023-04-17T19:43:18.681Z,15.31
2023-04-17T19:45:44.990Z,15.45
2023-04-17T19:48:11.401Z,15.61
2023-04-17T19:50:37.747Z,15.47
2023-04-17T19:53:04.118Z,15.69
2023-04-17T19:55:30.668Z,15.61
2023-04-17T19:57:58.739Z,15.50
2023-04-17T20:00:25.260Z,15.51
2023-04-17T20:02:51.887Z,15.64
2023-04-17T20:05:18.588Z,15.49
2023-04-17T20:07:45.144Z,15.40
2023-04-17T20:10:11.773Z,15.36
2023-04-17T20:12:38.167Z,15.28
2023-04-17T20:15:04.604Z,15.36
2023-04-17T20:17:31.023Z,15.26
2023-04-17T20:19:57.816Z,15.27
2023-04-17T20:22:24.639Z,15.05
2023-04-17T20:24:52.093Z,15.18
2023-04-17T20:27:18.481Z,15.19
2023-04-17T20:29:45.135Z,15.04
2023-04-17T20:32:11.821Z,15.01
2023-04-17T20:34:38.239Z,14.87
2023-04-17T20:37:04.667Z,14.91
2023-04-17T20:39:32.019Z,14.91
2023-04-17T20:41:58.539Z,14.96
2023-04-17T20:44:24.968Z,15.13
2023-04-17T20:46:51.346Z,15.20
2023-04-17T20:49:17.751Z,15.01
2023-04-17T20:51:45.017Z,14.46
2023-04-17T20:54:11.644Z,14.46
2023-04-17T20:56:38.514Z,14.57
2023-04-17T20:59:04.901Z,14.45
2023-04-17T21:01:31.252Z,14.46
2023-04-17T21:03:57.765Z,14.56
2023-04-17T21:06:24.331Z,14.53
2023-04-17T21:08:50.980Z,14.29
2023-04-17T21:11:17.313Z,14.38
2023-04-17T21:13:43.694Z,14.33
2023-04-17T21:16:10.111Z,14.37
2023-04-17T21:18:36.487Z,14.15
2023-04-17T21:21:02.844Z,14.18
2023-04-17T21:23:29.240Z,14.11
2023-04-17T21:25:55.876Z,14.14
2023-04-17T21:28:22.338Z,14.17
2023-04-17T21:30:48.809Z,14.32
2023-04-17T21:33:15.271Z,14.09
2023-04-17T21:35:41.811Z,14.21
2023-04-17T21:38:08.186Z,14.10
2023-04-17T21:40:36.700Z,14.34
2023-04-17T21:43:03.435Z,14.21
2023-04-17T21:45:30.188Z,14.41
2023-04-17T21:47:56.740Z,14.19
2023-04-17T21:50:23.381Z,14.04
2023-04-17T21:52:49.767Z,14.30
2023-04-17T21:55:16.143Z,14.06
2023-04-17T21:57:42.517Z,14.21
2023-04-17T22:00:12.442Z,14.01
2023-04-17T22:02:38.951Z,13.62
2023-04-17T22:05:05.473Z,13.62
2023-04-17T22:07:38.113Z,13.83
2023-04-17T22:10:10.358Z,13.85
2023-04-17T22:12:36.776Z,13.70
2023-04-17T22:15:03.303Z,13.84
2023-04-17T22:17:30.513Z,14.06
2023-04-17T22:19:57.082Z,13.80
2023-04-17T22:22:23.800Z,13.74
2023-04-17T22:24:50.511Z,13.59
2023-04-17T22:27:17.446Z,13.80
2023-04-17T22:29:43.876Z,13.72
2023-04-17T22:32:10.271Z,13.23
2023-04-17T22:34:37.092Z,13.14
2023-04-17T22:37:03.422Z,13.13
2023-04-17T22:39:32.330Z,13.37
2023-04-17T22:42:01.669Z,13.10
2023-04-17T22:44:28.076Z,12.88
2023-04-17T22:46:55.378Z,12.82
2023-04-17T22:49:21.740Z,12.68
2023-04-17T22:51:48.207Z,12.40
2023-04-17T22:54:22.149Z,12.43
2023-04-17T22:56:50.649Z,12.39
2023-04-17T22:59:20.103Z,12.59
2023-04-17T23:01:46.635Z,12.49
2023-04-17T23:04:13.933Z,12.74
2023-04-17T23:06:40.552Z,12.62
2023-04-17T23:09:07.535Z,12.75
2023-04-17T23:11:33.914Z,12.71
2023-04-17T23:14:00.640Z,12.44
2023-04-17T23:16:27.003Z,12.35
2023-04-17T23:18:53.433Z,12.31
2023-04-17T23:21:19.747Z,12.35
2023-04-17T23:23:49.037Z,12.26
2023-04-17T23:26:15.568Z,11.83
2023-04-17T23:28:41.960Z,12.06
2023-04-17T23:31:08.420Z,12.43
2023-04-17T23:33:34.816Z,12.11
2023-04-17T23:36:01.232Z,12.02
2023-04-17T23:38:30.363Z,12.37
2023-04-17T23:40:56.734Z,12.30
2023-04-17T23:43:23.228Z,12.08
2023-04-17T23:45:49.681Z,11.65
2023-04-17T23:48:16.557Z,11.68
2023-04-17T23:50:46.480Z,11.68
2023-04-17T23:53:12.870Z,11.51
2023-04-17T23:55:39.266Z,11.54
2023-04-17T23:58:05.652Z,11.40
